createdAt,value
2018-03-28T00:02:14.035Z,19.83
2018-03-28T00:04:42.321Z,21.58
2018-03-28T00:07:10.753Z,22.83
2018-03-28T00:09:38.512Z,21.95
2018-03-28T00:12:06.021Z,19.50
2018-03-28T00:14:34.309Z,22.27
2018-03-28T00:17:01.840Z,26.12
2018-03-28T00:19:29.405Z,18.83
2018-03-28T00:21:57.700Z,19.62
2018-03-28T00:24:25.215Z,19.52
2018-03-28T00:26:52.736Z,19.75
2018-03-28T00:29:20.267Z,19.67
2018-03-28T00:31:47.801Z,21.85
2018-03-28T00:34:15.324Z,23.87
2018-03-28T00:36:42.869Z,20.73
2018-03-28T00:39:10.373Z,20.17
2018-03-28T00:41:37.874Z,16.92
2018-03-28T00:44:06.177Z,17.45
2018-03-28T00:46:33.685Z,16.52
2018-03-28T00:49:01.211Z,18.87
2018-03-28T00:51:36.551Z,16.17
2018-03-28T00:54:04.085Z,19.90
2018-03-28T00:56:32.363Z,19.23
2018-03-28T00:59:00.664Z,19.50
2018-03-28T01:01:28.172Z,19.65
2018-03-28T01:03:55.697Z,17.02
2018-03-28T01:06:23.199Z,13.75
2018-03-28T01:08:51.467Z,13.75
2018-03-28T01:11:18.990Z,14.02
2018-03-28T01:13:46.544Z,15.57
2018-03-28T01:16:14.083Z,13.90
2018-03-28T01:18:41.596Z,11.60
2018-03-28T01:21:09.119Z,13.93
2018-03-28T01:23:36.624Z,17.80
2018-03-28T01:26:04.133Z,14.05
2018-03-28T01:28:31.663Z,11.93
2018-03-28T01:30:59.970Z,19.40
2018-03-28T01:33:27.528Z,12.20
2018-03-28T01:35:55.048Z,15.52
2018-03-28T01:38:22.993Z,15.43
2018-03-28T01:40:50.538Z,10.05
2018-03-28T01:43:18.061Z,13.55
2018-03-28T01:45:45.567Z,12.40
2018-03-28T01:48:13.083Z,12.75
2018-03-28T01:50:40.634Z,11.85
2018-03-28T01:53:08.899Z,9.90
2018-03-28T01:55:36.444Z,14.27
2018-03-28T01:58:03.969Z,9.48
2018-03-28T02:00:31.490Z,13.00
2018-03-28T02:02:58.988Z,11.52
2018-03-28T02:05:26.495Z,9.75
2018-03-28T02:07:54.007Z,10.55
2018-03-28T02:10:21.540Z,12.23
2018-03-28T02:12:49.110Z,10.88
2018-03-28T02:15:16.608Z,11.90
2018-03-28T02:17:44.180Z,9.80
2018-03-28T02:20:11.727Z,11.40
2018-03-28T02:22:39.240Z,9.77
2018-03-28T02:25:06.731Z,9.60
2018-03-28T02:27:34.772Z,10.45
2018-03-28T02:30:02.276Z,9.77
2018-03-28T02:32:29.954Z,9.40
2018-03-28T02:34:57.518Z,11.60
2018-03-28T02:37:25.013Z,8.98
2018-03-28T02:39:52.564Z,9.00
2018-03-28T02:42:20.068Z,9.25
2018-03-28T02:44:47.590Z,6.40
2018-03-28T02:47:15.841Z,8.65
2018-03-28T02:49:45.161Z,5.57
2018-03-28T02:52:13.914Z,7.50
2018-03-28T02:54:41.431Z,7.37
2018-03-28T02:57:08.983Z,8.98
2018-03-28T02:59:36.504Z,8.63
2018-03-28T03:02:04.033Z,5.20
2018-03-28T03:04:31.568Z,7.05
2018-03-28T03:06:59.090Z,6.53
2018-03-28T03:12:28.724Z,4.95
2018-03-28T03:14:57.007Z,5.45
2018-03-28T03:17:25.282Z,5.65
2018-03-28T03:19:53.032Z,4.80
2018-03-28T03:22:20.518Z,5.05
2018-03-28T03:24:48.025Z,6.72
2018-03-28T03:27:15.521Z,7.10
2018-03-28T03:29:43.082Z,9.68
2018-03-28T03:32:11.360Z,8.48
2018-03-28T03:34:39.656Z,8.65
2018-03-28T03:37:07.945Z,6.25
2018-03-28T03:39:35.451Z,7.05
2018-03-28T03:42:02.980Z,8.52
2018-03-28T03:44:30.504Z,6.00
2018-03-28T03:46:58.791Z,6.00
2018-03-28T03:49:26.289Z,7.75
2018-03-28T03:51:53.821Z,3.60
2018-03-28T03:54:21.343Z,6.37
2018-03-28T03:56:48.860Z,7.20
2018-03-28T03:59:16.355Z,5.85
2018-03-28T04:01:43.850Z,8.30
2018-03-28T04:04:11.387Z,5.05
2018-03-28T04:06:39.669Z,6.35
2018-03-28T04:09:07.963Z,6.10
2018-03-28T04:11:35.466Z,5.72
2018-03-28T04:14:03.556Z,7.87
2018-03-28T04:16:31.784Z,6.62
2018-03-28T04:18:59.315Z,11.50
2018-03-28T04:21:27.617Z,6.22
2018-03-28T04:23:55.116Z,5.07
2018-03-28T04:26:22.632Z,8.50
2018-03-28T04:28:50.141Z,11.15
2018-03-28T04:31:17.893Z,5.80
2018-03-28T04:33:45.451Z,5.50
2018-03-28T04:36:12.965Z,6.40
2018-03-28T04:38:41.235Z,8.68
2018-03-28T04:41:09.496Z,7.25
2018-03-28T04:43:37.005Z,5.53
2018-03-28T04:46:04.505Z,6.70
2018-03-28T04:48:32.006Z,5.18
2018-03-28T04:50:59.503Z,8.15
2018-03-28T04:53:27.667Z,4.68
2018-03-28T04:55:55.659Z,6.12
2018-03-28T04:58:23.256Z,7.15
2018-03-28T05:00:51.769Z,8.57
2018-03-28T05:03:19.510Z,5.93
2018-03-28T05:05:47.791Z,6.30
2018-03-28T05:08:16.066Z,6.22
2018-03-28T05:10:44.332Z,8.38
2018-03-28T05:13:12.632Z,5.03
2018-03-28T05:15:40.224Z,9.02
2018-03-28T05:18:07.701Z,6.82
2018-03-28T05:20:35.214Z,11.65
2018-03-28T05:23:02.744Z,4.93
2018-03-28T05:25:31.024Z,6.72
2018-03-28T05:27:59.300Z,10.10
2018-03-28T05:30:27.579Z,11.82
2018-03-28T05:32:55.069Z,9.10
2018-03-28T05:35:22.559Z,9.02
2018-03-28T05:37:50.083Z,9.20
2018-03-28T05:40:17.567Z,8.43
2018-03-28T05:42:45.093Z,9.52
2018-03-28T05:45:12.599Z,10.05
2018-03-28T05:47:40.095Z,7.97
2018-03-28T05:50:08.363Z,9.40
2018-03-28T05:52:35.875Z,6.53
2018-03-28T05:55:04.051Z,11.63
2018-03-28T05:57:31.585Z,10.32
2018-03-28T05:59:59.267Z,10.10
2018-03-28T06:02:26.931Z,10.18
2018-03-28T06:04:54.426Z,12.82
2018-03-28T06:07:22.040Z,11.45
2018-03-28T06:09:49.489Z,8.88
2018-03-28T06:12:17.032Z,12.60
2018-03-28T06:14:45.319Z,10.50
2018-03-28T06:17:13.812Z,16.40
2018-03-28T06:19:41.371Z,12.15
2018-03-28T06:22:08.880Z,9.85
2018-03-28T06:24:36.418Z,7.87
2018-03-28T06:27:04.755Z,10.68
2018-03-28T06:29:32.628Z,7.57
2018-03-28T06:32:00.180Z,10.30
2018-03-28T06:34:28.427Z,9.40
2018-03-28T06:36:55.953Z,14.43
2018-03-28T06:39:23.465Z,10.30
2018-03-28T06:41:51.001Z,8.95
2018-03-28T06:44:18.545Z,9.80
2018-03-28T06:46:46.101Z,12.77
2018-03-28T06:49:13.625Z,9.43
2018-03-28T06:51:41.895Z,9.57
2018-03-28T06:54:11.041Z,12.10
2018-03-28T06:56:38.567Z,10.05
2018-03-28T06:59:06.776Z,14.38
2018-03-28T07:01:35.044Z,13.30
2018-03-28T07:04:02.658Z,10.13
2018-03-28T07:06:31.001Z,7.12
2018-03-28T07:08:58.577Z,8.63
2018-03-28T07:11:26.115Z,10.38
2018-03-28T07:13:54.280Z,10.00
2018-03-28T07:16:21.819Z,7.53
2018-03-28T07:18:49.335Z,10.60
2018-03-28T07:21:16.877Z,9.50
2018-03-28T07:23:44.656Z,9.00
2018-03-28T07:26:12.200Z,9.50
2018-03-28T07:28:40.600Z,7.12
2018-03-28T07:31:08.173Z,8.45
2018-03-28T07:33:36.510Z,8.25
2018-03-28T07:36:04.851Z,6.12
2018-03-28T07:38:33.168Z,7.68
2018-03-28T07:41:00.704Z,5.30
2018-03-28T07:43:28.291Z,5.25
2018-03-28T07:45:56.264Z,6.15
2018-03-28T07:48:23.783Z,10.07
2018-03-28T07:50:51.304Z,8.48
2018-03-28T07:53:18.833Z,14.15
2018-03-28T07:55:46.400Z,6.07
2018-03-28T07:58:14.009Z,6.57
2018-03-28T08:00:41.578Z,6.22
2018-03-28T08:03:09.904Z,6.80
2018-03-28T08:05:37.782Z,8.10
2018-03-28T08:08:05.297Z,6.93
2018-03-28T08:10:32.851Z,8.88
2018-03-28T08:13:00.420Z,7.60
2018-03-28T08:15:27.969Z,5.97
2018-03-28T08:17:56.277Z,13.82
2018-03-28T08:20:24.746Z,11.12
2018-03-28T08:22:52.330Z,8.88
2018-03-28T08:25:19.863Z,6.62
2018-03-28T08:27:47.372Z,7.93
2018-03-28T08:30:15.716Z,9.27
2018-03-28T08:32:43.263Z,8.50
2018-03-28T08:35:10.810Z,8.43
2018-03-28T08:37:38.426Z,7.70
2018-03-28T08:40:05.988Z,9.88
2018-03-28T08:42:33.561Z,15.60
2018-03-28T08:45:01.099Z,5.53
2018-03-28T08:47:28.718Z,8.98
2018-03-28T08:49:56.306Z,9.68
2018-03-28T08:52:23.984Z,9.65
2018-03-28T08:54:51.511Z,6.43
2018-03-28T08:57:19.085Z,10.80
2018-03-28T08:59:46.643Z,5.20
2018-03-28T09:02:14.193Z,6.20
2018-03-28T09:04:41.747Z,8.40
2018-03-28T09:07:09.322Z,6.37
2018-03-28T09:09:36.897Z,5.43
2018-03-28T09:12:04.423Z,5.72
2018-03-28T09:14:32.009Z,3.80
2018-03-28T09:16:59.553Z,5.60
2018-03-28T09:19:27.142Z,9.52
2018-03-28T09:21:54.691Z,5.90
2018-03-28T09:24:22.242Z,4.03
2018-03-28T09:26:49.777Z,2.80
2018-03-28T09:29:17.328Z,5.57
2018-03-28T09:31:44.885Z,4.78
2018-03-28T09:34:12.448Z,6.10
2018-03-28T09:36:40.033Z,3.35
2018-03-28T09:39:07.712Z,4.20
2018-03-28T09:41:35.232Z,8.88
2018-03-28T09:44:02.791Z,5.67
2018-03-28T09:46:30.327Z,4.45
2018-03-28T09:48:57.892Z,3.45
2018-03-28T09:51:25.464Z,3.25
2018-03-28T09:53:53.766Z,4.32
2018-03-28T09:56:21.308Z,4.72
2018-03-28T09:58:49.608Z,3.20
2018-03-28T10:01:23.464Z,4.90
2018-03-28T10:03:50.973Z,8.70
2018-03-28T10:06:20.091Z,4.22
2018-03-28T10:08:47.659Z,3.70
2018-03-28T10:11:15.224Z,2.10
2018-03-28T10:13:42.809Z,4.33
2018-03-28T10:16:10.341Z,1.70
2018-03-28T10:18:37.910Z,2.65
2018-03-28T10:21:05.462Z,1.75
2018-03-28T10:23:33.069Z,2.30
2018-03-28T10:26:00.639Z,4.20
2018-03-28T10:28:29.004Z,4.40
2018-03-28T10:30:56.553Z,3.50
2018-03-28T10:33:24.208Z,1.92
2018-03-28T10:35:51.820Z,1.58
2018-03-28T10:38:20.136Z,3.57
2018-03-28T10:40:47.730Z,2.93
2018-03-28T10:43:15.250Z,3.60
2018-03-28T10:45:42.803Z,1.83
2018-03-28T10:48:10.439Z,2.70
2018-03-28T10:50:38.793Z,4.10
2018-03-28T10:53:06.347Z,5.63
2018-03-28T10:55:33.899Z,4.77
2018-03-28T10:58:01.415Z,2.20
2018-03-28T11:00:29.545Z,4.60
2018-03-28T11:02:57.705Z,5.35
2018-03-28T11:05:25.261Z,3.30
2018-03-28T11:07:52.814Z,3.30
2018-03-28T11:10:20.346Z,1.97
2018-03-28T11:12:47.919Z,3.80
2018-03-28T11:15:15.527Z,2.40
2018-03-28T11:17:43.087Z,1.60
2018-03-28T11:20:10.581Z,5.20
2018-03-28T11:22:39.640Z,5.33
2018-03-28T11:25:07.193Z,5.13
2018-03-28T11:27:34.700Z,1.83
2018-03-28T11:30:02.251Z,4.40
2018-03-28T11:32:30.680Z,4.57
2018-03-28T11:34:58.236Z,3.20
2018-03-28T11:37:25.745Z,3.90
2018-03-28T11:39:53.324Z,6.62
2018-03-28T11:42:20.857Z,15.20
2018-03-28T11:44:48.410Z,3.30
2018-03-28T11:47:15.953Z,2.80
2018-03-28T11:49:43.500Z,2.70
2018-03-28T11:52:11.050Z,2.37
2018-03-28T11:54:38.635Z,4.33
2018-03-28T11:57:06.196Z,7.12
2018-03-28T11:59:33.733Z,3.27
2018-03-28T12:02:01.285Z,3.47
2018-03-28T12:04:28.803Z,3.85
2018-03-28T12:06:57.149Z,2.90
2018-03-28T12:09:25.040Z,3.33
2018-03-28T12:11:52.585Z,3.17
2018-03-28T12:14:20.181Z,4.80
2018-03-28T12:16:47.658Z,2.17
2018-03-28T12:19:15.251Z,6.82
2018-03-28T12:21:42.777Z,7.80
2018-03-28T12:24:10.317Z,8.47
2018-03-28T12:26:38.601Z,7.30
2018-03-28T12:29:06.214Z,3.00
2018-03-28T12:31:33.724Z,4.13
2018-03-28T12:34:01.312Z,7.27
2018-03-28T12:36:28.878Z,7.43
2018-03-28T12:38:56.403Z,7.30
2018-03-28T12:41:23.973Z,9.80
2018-03-28T12:43:51.512Z,12.10
2018-03-28T12:46:19.133Z,8.60
2018-03-28T12:48:46.631Z,8.97
2018-03-28T12:51:14.875Z,9.57
2018-03-28T12:53:42.498Z,10.83
2018-03-28T12:56:10.074Z,6.87
2018-03-28T12:58:37.643Z,5.25
2018-03-28T13:01:06.383Z,3.13
2018-03-28T13:03:34.701Z,6.43
2018-03-28T13:06:02.247Z,4.10
2018-03-28T13:08:29.781Z,4.40
2018-03-28T13:10:58.112Z,10.80
2018-03-28T13:13:25.647Z,8.67
2018-03-28T13:15:53.956Z,14.70
2018-03-28T13:18:22.341Z,5.60
2018-03-28T13:20:49.853Z,5.90
2018-03-28T13:23:18.161Z,5.80
2018-03-28T13:25:45.693Z,3.50
2018-03-28T13:28:13.270Z,5.40
2018-03-28T13:30:40.811Z,4.93
2018-03-28T13:33:08.316Z,3.53
2018-03-28T13:35:35.873Z,3.30
2018-03-28T13:38:03.422Z,2.03
2018-03-28T13:40:30.968Z,3.83
2018-03-28T13:42:59.178Z,3.60
2018-03-28T13:45:26.715Z,3.40
2018-03-28T13:47:54.285Z,4.82
2018-03-28T13:50:21.805Z,1.70
2018-03-28T13:52:50.237Z,1.73
2018-03-28T13:55:17.788Z,3.83
2018-03-28T13:57:45.343Z,3.22
2018-03-28T14:00:12.857Z,1.55
2018-03-28T14:02:41.163Z,4.40
2018-03-28T14:05:08.663Z,1.65
2018-03-28T14:07:36.255Z,1.08
2018-03-28T14:10:04.536Z,1.92
2018-03-28T14:12:32.992Z,3.08
2018-03-28T14:15:00.533Z,2.08
2018-03-28T14:17:28.964Z,4.43
2018-03-28T14:19:56.500Z,1.58
2018-03-28T14:22:24.099Z,2.83
2018-03-28T14:24:52.334Z,1.67
2018-03-28T14:27:19.852Z,1.70
2018-03-28T14:29:47.381Z,2.47
2018-03-28T14:32:15.706Z,4.93
2018-03-28T14:34:43.232Z,2.55
2018-03-28T14:37:10.752Z,1.30
2018-03-28T14:39:38.256Z,2.33
2018-03-28T14:42:06.669Z,1.75
2018-03-28T14:44:34.516Z,2.28
2018-03-28T14:47:02.064Z,4.43
2018-03-28T14:49:29.576Z,6.20
2018-03-28T14:51:57.134Z,4.20
2018-03-28T14:54:24.659Z,1.62
2018-03-28T14:56:52.183Z,1.73
2018-03-28T14:59:20.468Z,1.40
2018-03-28T15:01:47.998Z,2.33
2018-03-28T15:04:15.540Z,1.30
2018-03-28T15:06:43.054Z,2.17
2018-03-28T15:09:10.612Z,2.28
2018-03-28T15:11:38.130Z,4.90
2018-03-28T15:14:05.688Z,1.98
2018-03-28T15:16:33.225Z,2.95
2018-03-28T15:19:01.573Z,1.55
2018-03-28T15:21:29.101Z,1.65
2018-03-28T15:23:56.651Z,1.65
2018-03-28T15:26:24.217Z,3.45
2018-03-28T15:28:51.704Z,2.58
2018-03-28T15:31:19.241Z,6.22
2018-03-28T15:33:46.814Z,2.40
2018-03-28T15:36:14.398Z,2.07
2018-03-28T15:38:41.981Z,2.53
2018-03-28T15:41:09.528Z,2.30
2018-03-28T15:43:37.033Z,1.35
2018-03-28T15:46:04.576Z,3.55
2018-03-28T15:48:32.119Z,5.70
2018-03-28T15:50:59.699Z,1.58
2018-03-28T15:53:27.216Z,2.20
2018-03-28T15:55:54.725Z,1.87
2018-03-28T15:58:22.279Z,2.65
2018-03-28T16:00:49.824Z,2.33
2018-03-28T16:03:17.380Z,2.10
2018-03-28T16:05:44.975Z,1.20
2018-03-28T16:08:12.528Z,2.37
2018-03-28T16:10:40.060Z,2.05
2018-03-28T16:13:07.613Z,1.33
2018-03-28T16:15:35.141Z,1.80
2018-03-28T16:18:03.444Z,1.52
2018-03-28T16:20:31.005Z,3.45
2018-03-28T16:22:58.552Z,2.70
2018-03-28T16:25:26.092Z,1.48
2018-03-28T16:27:54.029Z,3.08
2018-03-28T16:30:21.556Z,4.47
2018-03-28T16:32:49.065Z,1.42
2018-03-28T16:35:16.596Z,2.58
2018-03-28T16:37:44.124Z,2.58
2018-03-28T16:40:11.658Z,2.17
2018-03-28T16:42:40.037Z,10.63
2018-03-28T16:45:07.588Z,2.08
2018-03-28T16:47:35.686Z,2.75
2018-03-28T16:50:03.261Z,2.00
2018-03-28T16:52:30.736Z,2.37
2018-03-28T16:54:58.253Z,3.58
2018-03-28T16:57:25.792Z,3.70
2018-03-28T16:59:53.592Z,2.22
2018-03-28T17:02:21.452Z,1.27
2018-03-28T17:04:57.336Z,1.20
2018-03-28T17:07:26.816Z,2.90
2018-03-28T17:09:58.743Z,4.90
2018-03-28T17:12:30.989Z,1.55
2018-03-28T17:14:59.758Z,1.30
2018-03-28T17:17:35.500Z,1.67
2018-03-28T17:20:06.954Z,2.97
2018-03-28T17:22:42.916Z,3.80
2018-03-28T17:25:17.219Z,3.17
2018-03-28T17:27:58.815Z,2.35
2018-03-28T17:30:26.566Z,2.87
2018-03-28T17:32:56.113Z,4.75
2018-03-28T17:35:23.799Z,1.87
2018-03-28T17:37:51.341Z,1.90
2018-03-28T17:40:19.002Z,1.80
2018-03-28T17:42:46.691Z,4.37
2018-03-28T17:45:18.675Z,1.35
2018-03-28T17:47:46.470Z,3.10
2018-03-28T17:50:14.015Z,1.83
2018-03-28T17:52:42.366Z,1.40
2018-03-28T17:55:09.951Z,2.90
2018-03-28T17:57:37.587Z,3.05
2018-03-28T18:00:05.301Z,1.27
2018-03-28T18:02:33.595Z,1.30
2018-03-28T18:05:01.099Z,1.30
2018-03-28T18:07:28.637Z,2.05
2018-03-28T18:09:56.170Z,2.30
2018-03-28T18:12:23.908Z,2.83
2018-03-28T18:14:52.206Z,1.08
2018-03-28T18:17:19.715Z,2.17
2018-03-28T18:19:47.269Z,2.83
2018-03-28T18:22:14.780Z,1.80
2018-03-28T18:24:43.074Z,5.07
2018-03-28T18:27:10.646Z,2.58
2018-03-28T18:29:38.181Z,1.92
2018-03-28T18:32:05.769Z,1.95
2018-03-28T18:34:33.353Z,2.00
2018-03-28T18:37:00.895Z,2.65
2018-03-28T18:39:28.420Z,19.48
2018-03-28T18:41:56.704Z,2.00
2018-03-28T18:44:24.232Z,4.62
2018-03-28T18:46:51.768Z,1.95
2018-03-28T18:49:19.267Z,6.20
2018-03-28T18:51:47.543Z,4.18
2018-03-28T18:54:15.933Z,2.37
2018-03-28T18:56:44.188Z,3.20
2018-03-28T18:59:11.711Z,4.15
2018-03-28T19:01:39.258Z,1.23
2018-03-28T19:04:06.818Z,1.75
2018-03-28T19:06:34.335Z,1.70
2018-03-28T19:09:02.641Z,4.55
2018-03-28T19:11:30.152Z,2.20
2018-03-28T19:13:57.712Z,2.17
2018-03-28T19:16:25.277Z,3.87
2018-03-28T19:18:52.788Z,4.05
2018-03-28T19:21:20.319Z,1.25
2018-03-28T19:23:47.853Z,2.40
2018-03-28T19:26:15.387Z,1.35
2018-03-28T19:28:42.892Z,1.12
2018-03-28T19:31:11.186Z,1.65
2018-03-28T19:33:39.500Z,2.72
2018-03-28T19:36:07.058Z,1.80
2018-03-28T19:38:34.603Z,1.17
2018-03-28T19:41:02.127Z,2.55
2018-03-28T19:43:30.796Z,1.20
2018-03-28T19:45:58.318Z,2.92
2018-03-28T19:48:25.858Z,2.55
2018-03-28T19:50:53.382Z,1.87
2018-03-28T19:53:20.872Z,1.35
2018-03-28T19:55:48.455Z,2.55
2018-03-28T19:58:15.966Z,0.90
2018-03-28T20:00:43.472Z,1.87
2018-03-28T20:03:10.990Z,3.05
2018-03-28T20:05:38.579Z,1.85
2018-03-28T20:08:06.223Z,2.75
2018-03-28T20:10:34.484Z,1.70
2018-03-28T20:13:02.955Z,3.25
2018-03-28T20:15:30.460Z,1.62
2018-03-28T20:17:57.971Z,2.30
2018-03-28T20:20:25.497Z,2.37
2018-03-28T20:22:53.032Z,2.72
2018-03-28T20:25:20.547Z,1.80
2018-03-28T20:27:48.039Z,1.98
2018-03-28T20:30:16.327Z,1.60
2018-03-28T20:32:44.596Z,4.55
2018-03-28T20:35:12.876Z,3.95
2018-03-28T20:37:41.149Z,3.00
2018-03-28T20:40:09.445Z,2.65
2018-03-28T20:42:36.943Z,3.58
2018-03-28T20:45:04.450Z,3.08
2018-03-28T20:47:31.964Z,7.75
2018-03-28T20:49:59.477Z,3.20
2018-03-28T20:52:27.747Z,2.72
2018-03-28T20:54:56.020Z,2.72
2018-03-28T20:57:24.301Z,3.00
2018-03-28T20:59:51.848Z,2.50
2018-03-28T21:02:20.774Z,4.80
2018-03-28T21:04:48.711Z,2.45
2018-03-28T21:07:17.011Z,1.33
2018-03-28T21:09:44.517Z,1.92
2018-03-28T21:12:12.009Z,1.75
2018-03-28T21:14:39.565Z,1.52
2018-03-28T21:17:07.838Z,1.37
2018-03-28T21:19:35.357Z,2.78
2018-03-28T21:22:02.856Z,1.83
2018-03-28T21:24:30.379Z,1.35
2018-03-28T21:26:57.894Z,2.85
2018-03-28T21:29:26.177Z,1.90
2018-03-28T21:31:54.453Z,1.85
2018-03-28T21:34:22.762Z,1.58
2018-03-28T21:36:51.012Z,1.30
2018-03-28T21:39:19.364Z,2.62
2018-03-28T21:41:46.889Z,6.20
2018-03-28T21:44:14.397Z,1.65
2018-03-28T21:46:41.920Z,3.85
2018-03-28T21:49:09.461Z,1.83
2018-03-28T21:51:36.978Z,1.73
2018-03-28T21:54:04.526Z,1.30
2018-03-28T21:56:32.819Z,1.55
2018-03-28T21:59:01.113Z,2.00
2018-03-28T22:01:28.603Z,1.33
2018-03-28T22:03:56.116Z,2.45
2018-03-28T22:06:24.401Z,1.40
2018-03-28T22:08:52.682Z,1.50
2018-03-28T22:11:20.205Z,2.08
2018-03-28T22:13:48.824Z,2.30
2018-03-28T22:16:17.083Z,2.40
2018-03-28T22:18:45.377Z,2.22
2018-03-28T22:21:13.638Z,1.67
2018-03-28T22:23:42.811Z,1.77
2018-03-28T22:26:10.312Z,2.55
2018-03-28T22:28:38.570Z,2.17
2018-03-28T22:31:06.102Z,1.62
2018-03-28T22:33:33.593Z,5.37
2018-03-28T22:36:01.882Z,3.20
2018-03-28T22:38:29.599Z,2.28
2018-03-28T22:40:57.123Z,5.15
2018-03-28T22:43:24.629Z,3.22
2018-03-28T22:45:52.152Z,2.87
2018-03-28T22:48:19.672Z,3.30
2018-03-28T22:50:47.196Z,2.50
2018-03-28T22:53:14.726Z,3.00
2018-03-28T22:55:42.225Z,2.75
2018-03-28T22:58:09.739Z,3.35
2018-03-28T23:00:37.224Z,2.85
2018-03-28T23:03:05.188Z,2.75
2018-03-28T23:05:32.684Z,2.30
2018-03-28T23:08:00.210Z,2.53
2018-03-28T23:10:27.711Z,2.20
2018-03-28T23:12:55.231Z,2.80
2018-03-28T23:15:22.729Z,2.60
2018-03-28T23:17:50.232Z,2.90
2018-03-28T23:20:17.786Z,3.08
2018-03-28T23:22:45.284Z,2.62
2018-03-28T23:25:12.799Z,2.60
2018-03-28T23:27:40.291Z,3.03
2018-03-28T23:30:07.825Z,4.05
2018-03-28T23:32:35.336Z,2.58
2018-03-28T23:35:02.839Z,2.35
2018-03-28T23:37:30.368Z,3.25
2018-03-28T23:39:58.834Z,4.35
2018-03-28T23:42:26.369Z,3.35
2018-03-28T23:44:53.882Z,2.70
2018-03-28T23:47:22.461Z,3.60
2018-03-28T23:49:50.764Z,4.70
2018-03-28T23:52:18.292Z,2.87
2018-03-28T23:54:46.567Z,2.70
2018-03-28T23:57:14.061Z,3.70
2018-03-28T23:59:41.589Z,3.15
